sensor_id;sensor_type;location;lat;lon;timestamp;P1;durP1;ratioP1;P2;durP2;ratioP2
75139;SDS011;63714;55.812;37.658;2023-09-18T00:01:54;7.53;;;4.43;;
75139;SDS011;63714;55.812;37.658;2023-09-18T00:04:20;6.97;;;4.50;;
75139;SDS011;63714;55.812;37.658;2023-09-18T00:06:45;6.65;;;4.70;;
75139;SDS011;63714;55.812;37.658;2023-09-18T00:09:11;6.90;;;4.47;;
75139;SDS011;63714;55.812;37.658;2023-09-18T00:11:39;8.13;;;5.18;;
75139;SDS011;63714;55.812;37.658;2023-09-18T00:14:05;7.05;;;4.38;;
75139;SDS011;63714;55.812;37.658;2023-09-18T00:16:30;7.10;;;4.63;;
75139;SDS011;63714;55.812;37.658;2023-09-18T00:18:56;7.03;;;4.55;;
75139;SDS011;63714;55.812;37.658;2023-09-18T00:21:22;7.32;;;4.90;;
75139;SDS011;63714;55.812;37.658;2023-09-18T00:26:15;7.05;;;4.63;;
75139;SDS011;63714;55.812;37.658;2023-09-18T00:28:41;8.18;;;4.90;;
75139;SDS011;63714;55.812;37.658;2023-09-18T00:31:06;8.18;;;4.50;;
75139;SDS011;63714;55.812;37.658;2023-09-18T00:33:32;7.68;;;4.93;;
75139;SDS011;63714;55.812;37.658;2023-09-18T00:35:58;5.88;;;4.28;;
75139;SDS011;63714;55.812;37.658;2023-09-18T00:38:23;7.18;;;5.05;;
75139;SDS011;63714;55.812;37.658;2023-09-18T00:40:49;7.82;;;4.82;;
75139;SDS011;63714;55.812;37.658;2023-09-18T00:43:14;7.25;;;4.20;;
75139;SDS011;63714;55.812;37.658;2023-09-18T00:45:41;7.35;;;4.05;;
75139;SDS011;63714;55.812;37.658;2023-09-18T00:48:09;7.72;;;3.92;;
75139;SDS011;63714;55.812;37.658;2023-09-18T00:50:36;6.88;;;4.15;;
75139;SDS011;63714;55.812;37.658;2023-09-18T00:53:02;5.55;;;3.85;;
75139;SDS011;63714;55.812;37.658;2023-09-18T00:55:28;6.07;;;3.00;;
75139;SDS011;63714;55.812;37.658;2023-09-18T00:57:56;5.68;;;3.10;;
75139;SDS011;63714;55.812;37.658;2023-09-18T01:00:22;6.57;;;3.45;;
75139;SDS011;63714;55.812;37.658;2023-09-18T01:02:48;5.85;;;3.05;;
75139;SDS011;63714;55.812;37.658;2023-09-18T01:05:14;4.60;;;3.03;;
75139;SDS011;63714;55.812;37.658;2023-09-18T01:07:42;4.97;;;3.15;;
75139;SDS011;63714;55.812;37.658;2023-09-18T01:10:09;6.38;;;3.35;;
75139;SDS011;63714;55.812;37.658;2023-09-18T01:12:49;6.28;;;3.20;;
75139;SDS011;63714;55.812;37.658;2023-09-18T01:15:29;4.43;;;2.67;;
75139;SDS011;63714;55.812;37.658;2023-09-18T01:17:57;7.85;;;3.00;;
75139;SDS011;63714;55.812;37.658;2023-09-18T01:20:24;6.38;;;3.00;;
75139;SDS011;63714;55.812;37.658;2023-09-18T01:22:50;3.88;;;2.80;;
75139;SDS011;63714;55.812;37.658;2023-09-18T01:25:15;6.75;;;3.00;;
75139;SDS011;63714;55.812;37.658;2023-09-18T01:27:41;4.38;;;2.88;;
75139;SDS011;63714;55.812;37.658;2023-09-18T01:30:07;3.75;;;2.65;;
75139;SDS011;63714;55.812;37.658;2023-09-18T01:32:33;5.85;;;2.90;;
75139;SDS011;63714;55.812;37.658;2023-09-18T01:35:01;5.75;;;2.70;;
75139;SDS011;63714;55.812;37.658;2023-09-18T01:37:31;4.65;;;2.92;;
75139;SDS011;63714;55.812;37.658;2023-09-18T01:39:57;7.68;;;3.22;;
75139;SDS011;63714;55.812;37.658;2023-09-18T01:42:24;5.05;;;2.90;;
75139;SDS011;63714;55.812;37.658;2023-09-18T01:44:53;4.47;;;3.25;;
75139;SDS011;63714;55.812;37.658;2023-09-18T01:47:20;5.80;;;2.67;;
75139;SDS011;63714;55.812;37.658;2023-09-18T01:49:48;6.22;;;3.33;;
75139;SDS011;63714;55.812;37.658;2023-09-18T01:52:14;6.97;;;3.35;;
75139;SDS011;63714;55.812;37.658;2023-09-18T01:54:40;4.05;;;2.67;;
75139;SDS011;63714;55.812;37.658;2023-09-18T01:57:06;4.53;;;2.90;;
75139;SDS011;63714;55.812;37.658;2023-09-18T01:59:33;4.45;;;2.70;;
75139;SDS011;63714;55.812;37.658;2023-09-18T02:01:59;5.15;;;3.00;;
75139;SDS011;63714;55.812;37.658;2023-09-18T02:04:25;4.65;;;2.70;;
75139;SDS011;63714;55.812;37.658;2023-09-18T02:06:51;5.35;;;3.10;;
75139;SDS011;63714;55.812;37.658;2023-09-18T02:09:17;5.65;;;2.95;;
75139;SDS011;63714;55.812;37.658;2023-09-18T02:11:45;4.95;;;3.10;;
75139;SDS011;63714;55.812;37.658;2023-09-18T02:14:13;4.55;;;2.72;;
75139;SDS011;63714;55.812;37.658;2023-09-18T02:16:40;6.07;;;3.30;;
75139;SDS011;63714;55.812;37.658;2023-09-18T02:19:07;5.55;;;3.13;;
75139;SDS011;63714;55.812;37.658;2023-09-18T02:21:37;5.80;;;3.33;;
75139;SDS011;63714;55.812;37.658;2023-09-18T02:24:03;5.70;;;3.50;;
75139;SDS011;63714;55.812;37.658;2023-09-18T02:26:29;7.30;;;3.13;;
75139;SDS011;63714;55.812;37.658;2023-09-18T02:28:57;4.88;;;2.95;;
75139;SDS011;63714;55.812;37.658;2023-09-18T02:31:24;9.85;;;3.40;;
75139;SDS011;63714;55.812;37.658;2023-09-18T02:33:49;7.78;;;3.30;;
75139;SDS011;63714;55.812;37.658;2023-09-18T02:36:15;6.75;;;3.35;;
75139;SDS011;63714;55.812;37.658;2023-09-18T02:38:41;5.30;;;3.00;;
75139;SDS011;63714;55.812;37.658;2023-09-18T02:41:08;4.68;;;3.20;;
75139;SDS011;63714;55.812;37.658;2023-09-18T02:43:33;5.68;;;3.25;;
75139;SDS011;63714;55.812;37.658;2023-09-18T02:45:59;8.05;;;2.90;;
75139;SDS011;63714;55.812;37.658;2023-09-18T02:48:25;4.00;;;2.90;;
75139;SDS011;63714;55.812;37.658;2023-09-18T02:50:50;5.50;;;3.08;;
75139;SDS011;63714;55.812;37.658;2023-09-18T02:53:22;6.93;;;3.17;;
75139;SDS011;63714;55.812;37.658;2023-09-18T02:55:52;7.65;;;3.25;;
75139;SDS011;63714;55.812;37.658;2023-09-18T02:58:19;6.70;;;3.30;;
75139;SDS011;63714;55.812;37.658;2023-09-18T03:00:45;5.13;;;3.42;;
75139;SDS011;63714;55.812;37.658;2023-09-18T03:03:13;6.85;;;3.55;;
75139;SDS011;63714;55.812;37.658;2023-09-18T03:05:40;6.05;;;3.28;;
75139;SDS011;63714;55.812;37.658;2023-09-18T03:08:07;9.75;;;3.70;;
75139;SDS011;63714;55.812;37.658;2023-09-18T03:10:34;7.25;;;3.70;;
75139;SDS011;63714;55.812;37.658;2023-09-18T03:13:00;8.82;;;3.92;;
75139;SDS011;63714;55.812;37.658;2023-09-18T03:15:26;6.05;;;3.67;;
75139;SDS011;63714;55.812;37.658;2023-09-18T03:17:52;4.78;;;3.53;;
75139;SDS011;63714;55.812;37.658;2023-09-18T03:20:18;7.90;;;3.17;;
75139;SDS011;63714;55.812;37.658;2023-09-18T03:22:43;4.95;;;3.40;;
75139;SDS011;63714;55.812;37.658;2023-09-18T03:25:09;5.07;;;3.42;;
75139;SDS011;63714;55.812;37.658;2023-09-18T03:27:35;5.90;;;3.33;;
75139;SDS011;63714;55.812;37.658;2023-09-18T03:30:01;5.38;;;3.60;;
75139;SDS011;63714;55.812;37.658;2023-09-18T03:32:28;6.47;;;3.35;;
75139;SDS011;63714;55.812;37.658;2023-09-18T03:34:53;8.68;;;3.25;;
75139;SDS011;63714;55.812;37.658;2023-09-18T03:37:19;4.57;;;3.35;;
75139;SDS011;63714;55.812;37.658;2023-09-18T03:39:45;6.15;;;3.90;;
75139;SDS011;63714;55.812;37.658;2023-09-18T03:42:10;5.43;;;3.10;;
75139;SDS011;63714;55.812;37.658;2023-09-18T03:44:36;6.03;;;3.60;;
75139;SDS011;63714;55.812;37.658;2023-09-18T03:47:02;6.72;;;3.22;;
75139;SDS011;63714;55.812;37.658;2023-09-18T03:49:29;5.65;;;3.38;;
75139;SDS011;63714;55.812;37.658;2023-09-18T03:51:55;7.32;;;4.05;;
75139;SDS011;63714;55.812;37.658;2023-09-18T03:54:20;5.65;;;3.33;;
75139;SDS011;63714;55.812;37.658;2023-09-18T03:56:46;5.38;;;3.30;;
75139;SDS011;63714;55.812;37.658;2023-09-18T03:59:12;5.65;;;3.72;;
75139;SDS011;63714;55.812;37.658;2023-09-18T04:01:38;4.55;;;3.55;;
75139;SDS011;63714;55.812;37.658;2023-09-18T04:04:05;5.13;;;3.13;;
75139;SDS011;63714;55.812;37.658;2023-09-18T04:06:41;9.23;;;3.80;;
75139;SDS011;63714;55.812;37.658;2023-09-18T04:09:08;7.45;;;3.50;;
75139;SDS011;63714;55.812;37.658;2023-09-18T04:11:34;9.05;;;3.35;;
75139;SDS011;63714;55.812;37.658;2023-09-18T04:14:00;5.70;;;3.50;;
75139;SDS011;63714;55.812;37.658;2023-09-18T04:16:27;6.35;;;3.13;;
75139;SDS011;63714;55.812;37.658;2023-09-18T04:19:02;5.60;;;3.67;;
75139;SDS011;63714;55.812;37.658;2023-09-18T04:21:28;5.95;;;3.42;;
75139;SDS011;63714;55.812;37.658;2023-09-18T04:23:55;7.90;;;3.65;;
75139;SDS011;63714;55.812;37.658;2023-09-18T04:26:26;6.93;;;3.72;;
75139;SDS011;63714;55.812;37.658;2023-09-18T04:28:59;5.88;;;3.58;;
75139;SDS011;63714;55.812;37.658;2023-09-18T04:31:25;5.70;;;3.33;;
75139;SDS011;63714;55.812;37.658;2023-09-18T04:33:50;4.78;;;3.53;;
75139;SDS011;63714;55.812;37.658;2023-09-18T04:36:16;7.13;;;3.83;;
75139;SDS011;63714;55.812;37.658;2023-09-18T04:38:41;6.43;;;3.75;;
75139;SDS011;63714;55.812;37.658;2023-09-18T04:41:07;7.30;;;3.50;;
75139;SDS011;63714;55.812;37.658;2023-09-18T04:43:35;7.20;;;3.72;;
75139;SDS011;63714;55.812;37.658;2023-09-18T04:46:02;8.18;;;3.40;;
75139;SDS011;63714;55.812;37.658;2023-09-18T04:48:29;5.68;;;3.50;;
75139;SDS011;63714;55.812;37.658;2023-09-18T04:50:56;9.15;;;4.28;;
75139;SDS011;63714;55.812;37.658;2023-09-18T04:53:22;11.88;;;4.00;;
75139;SDS011;63714;55.812;37.658;2023-09-18T04:55:47;8.02;;;3.58;;
75139;SDS011;63714;55.812;37.658;2023-09-18T04:58:16;8.18;;;3.72;;
75139;SDS011;63714;55.812;37.658;2023-09-18T05:00:42;6.60;;;3.88;;
75139;SDS011;63714;55.812;37.658;2023-09-18T05:03:09;4.85;;;3.75;;
75139;SDS011;63714;55.812;37.658;2023-09-18T05:05:35;11.00;;;4.03;;
75139;SDS011;63714;55.812;37.658;2023-09-18T05:08:01;7.22;;;3.70;;
75139;SDS011;63714;55.812;37.658;2023-09-18T05:10:30;7.55;;;3.85;;
75139;SDS011;63714;55.812;37.658;2023-09-18T05:12:56;7.80;;;4.10;;
75139;SDS011;63714;55.812;37.658;2023-09-18T05:15:26;6.82;;;4.55;;
75139;SDS011;63714;55.812;37.658;2023-09-18T05:17:54;11.40;;;6.13;;
75139;SDS011;63714;55.812;37.658;2023-09-18T05:20:23;6.65;;;3.72;;
75139;SDS011;63714;55.812;37.658;2023-09-18T05:22:50;7.60;;;4.18;;
75139;SDS011;63714;55.812;37.658;2023-09-18T05:25:19;10.60;;;4.25;;
75139;SDS011;63714;55.812;37.658;2023-09-18T05:27:50;7.60;;;4.88;;
75139;SDS011;63714;55.812;37.658;2023-09-18T05:30:21;8.68;;;4.40;;
75139;SDS011;63714;55.812;37.658;2023-09-18T05:32:50;10.10;;;5.65;;
75139;SDS011;63714;55.812;37.658;2023-09-18T05:35:16;8.50;;;4.18;;
75139;SDS011;63714;55.812;37.658;2023-09-18T05:37:42;8.43;;;4.50;;
75139;SDS011;63714;55.812;37.658;2023-09-18T05:40:07;7.10;;;4.03;;
75139;SDS011;63714;55.812;37.658;2023-09-18T05:42:35;6.05;;;4.05;;
75139;SDS011;63714;55.812;37.658;2023-09-18T05:45:01;7.22;;;3.95;;
75139;SDS011;63714;55.812;37.658;2023-09-18T05:47:31;8.95;;;4.60;;
75139;SDS011;63714;55.812;37.658;2023-09-18T05:49:57;7.78;;;4.47;;
75139;SDS011;63714;55.812;37.658;2023-09-18T05:52:23;9.40;;;4.45;;
75139;SDS011;63714;55.812;37.658;2023-09-18T05:54:49;6.47;;;4.13;;
75139;SDS011;63714;55.812;37.658;2023-09-18T05:57:15;7.68;;;4.18;;
75139;SDS011;63714;55.812;37.658;2023-09-18T05:59:41;9.75;;;4.43;;
75139;SDS011;63714;55.812;37.658;2023-09-18T06:02:10;7.90;;;4.45;;
75139;SDS011;63714;55.812;37.658;2023-09-18T06:04:36;8.18;;;4.35;;
75139;SDS011;63714;55.812;37.658;2023-09-18T06:07:05;7.97;;;4.25;;
75139;SDS011;63714;55.812;37.658;2023-09-18T06:09:30;8.13;;;3.90;;
75139;SDS011;63714;55.812;37.658;2023-09-18T06:11:56;7.03;;;4.07;;
75139;SDS011;63714;55.812;37.658;2023-09-18T06:14:22;9.23;;;4.95;;
75139;SDS011;63714;55.812;37.658;2023-09-18T06:16:48;8.98;;;4.55;;
75139;SDS011;63714;55.812;37.658;2023-09-18T06:19:14;8.80;;;4.20;;
75139;SDS011;63714;55.812;37.658;2023-09-18T06:21:42;8.85;;;4.22;;
75139;SDS011;63714;55.812;37.658;2023-09-18T06:24:09;7.95;;;4.00;;
75139;SDS011;63714;55.812;37.658;2023-09-18T06:26:34;9.82;;;4.82;;
75139;SDS011;63714;55.812;37.658;2023-09-18T06:29:00;9.85;;;4.82;;
75139;SDS011;63714;55.812;37.658;2023-09-18T06:31:27;9.90;;;4.72;;
75139;SDS011;63714;55.812;37.658;2023-09-18T06:33:53;6.95;;;4.47;;
75139;SDS011;63714;55.812;37.658;2023-09-18T06:36:19;12.55;;;4.80;;
75139;SDS011;63714;55.812;37.658;2023-09-18T06:38:44;9.90;;;4.60;;
75139;SDS011;63714;55.812;37.658;2023-09-18T06:41:10;6.90;;;4.25;;
75139;SDS011;63714;55.812;37.658;2023-09-18T06:43:35;8.05;;;4.50;;
75139;SDS011;63714;55.812;37.658;2023-09-18T06:46:01;8.25;;;4.78;;
75139;SDS011;63714;55.812;37.658;2023-09-18T06:48:26;8.85;;;4.30;;
75139;SDS011;63714;55.812;37.658;2023-09-18T06:50:57;5.95;;;4.63;;
75139;SDS011;63714;55.812;37.658;2023-09-18T06:53:23;8.65;;;4.15;;
75139;SDS011;63714;55.812;37.658;2023-09-18T06:55:48;6.10;;;4.90;;
75139;SDS011;63714;55.812;37.658;2023-09-18T06:58:15;7.78;;;4.45;;
75139;SDS011;63714;55.812;37.658;2023-09-18T07:00:41;9.45;;;4.47;;
75139;SDS011;63714;55.812;37.658;2023-09-18T07:03:06;7.97;;;4.40;;
75139;SDS011;63714;55.812;37.658;2023-09-18T07:05:31;7.60;;;4.28;;
75139;SDS011;63714;55.812;37.658;2023-09-18T07:07:57;7.35;;;4.15;;
75139;SDS011;63714;55.812;37.658;2023-09-18T07:10:22;8.15;;;4.70;;
75139;SDS011;63714;55.812;37.658;2023-09-18T07:12:48;8.32;;;4.85;;
75139;SDS011;63714;55.812;37.658;2023-09-18T07:15:14;7.10;;;4.38;;
75139;SDS011;63714;55.812;37.658;2023-09-18T07:17:39;9.57;;;4.72;;
75139;SDS011;63714;55.812;37.658;2023-09-18T07:20:05;6.15;;;4.32;;
75139;SDS011;63714;55.812;37.658;2023-09-18T07:22:40;10.98;;;5.28;;
75139;SDS011;63714;55.812;37.658;2023-09-18T07:25:10;7.25;;;4.75;;
75139;SDS011;63714;55.812;37.658;2023-09-18T07:27:36;10.73;;;5.20;;
75139;SDS011;63714;55.812;37.658;2023-09-18T07:30:07;16.00;;;5.35;;
75139;SDS011;63714;55.812;37.658;2023-09-18T07:32:32;7.57;;;4.82;;
75139;SDS011;63714;55.812;37.658;2023-09-18T07:34:58;10.32;;;5.13;;
75139;SDS011;63714;55.812;37.658;2023-09-18T07:37:23;12.07;;;5.47;;
75139;SDS011;63714;55.812;37.658;2023-09-18T07:39:49;9.35;;;5.47;;
75139;SDS011;63714;55.812;37.658;2023-09-18T07:42:14;18.13;;;10.45;;
75139;SDS011;63714;55.812;37.658;2023-09-18T07:44:40;10.30;;;5.93;;
75139;SDS011;63714;55.812;37.658;2023-09-18T07:47:05;10.70;;;5.15;;
75139;SDS011;63714;55.812;37.658;2023-09-18T07:49:31;9.77;;;4.80;;
75139;SDS011;63714;55.812;37.658;2023-09-18T07:51:56;7.85;;;4.80;;
75139;SDS011;63714;55.812;37.658;2023-09-18T07:54:22;6.35;;;4.10;;
75139;SDS011;63714;55.812;37.658;2023-09-18T07:56:47;8.35;;;4.80;;
75139;SDS011;63714;55.812;37.658;2023-09-18T07:59:12;9.00;;;4.45;;
75139;SDS011;63714;55.812;37.658;2023-09-18T08:01:39;11.82;;;4.82;;
75139;SDS011;63714;55.812;37.658;2023-09-18T08:04:05;6.75;;;4.40;;
75139;SDS011;63714;55.812;37.658;2023-09-18T08:06:31;9.15;;;5.13;;
75139;SDS011;63714;55.812;37.658;2023-09-18T08:08:56;10.25;;;4.57;;
75139;SDS011;63714;55.812;37.658;2023-09-18T08:11:22;8.30;;;5.05;;
75139;SDS011;63714;55.812;37.658;2023-09-18T08:13:47;10.23;;;5.50;;
75139;SDS011;63714;55.812;37.658;2023-09-18T08:16:13;12.98;;;6.22;;
75139;SDS011;63714;55.812;37.658;2023-09-18T08:18:39;12.25;;;5.82;;
75139;SDS011;63714;55.812;37.658;2023-09-18T08:21:06;7.65;;;5.50;;
75139;SDS011;63714;55.812;37.658;2023-09-18T08:23:34;11.48;;;5.13;;
75139;SDS011;63714;55.812;37.658;2023-09-18T08:26:03;13.32;;;6.00;;
75139;SDS011;63714;55.812;37.658;2023-09-18T08:28:29;9.40;;;5.03;;
75139;SDS011;63714;55.812;37.658;2023-09-18T08:30:56;11.18;;;5.45;;
75139;SDS011;63714;55.812;37.658;2023-09-18T08:33:21;12.27;;;6.03;;
75139;SDS011;63714;55.812;37.658;2023-09-18T08:35:47;10.43;;;5.40;;
75139;SDS011;63714;55.812;37.658;2023-09-18T08:38:14;10.45;;;5.53;;
75139;SDS011;63714;55.812;37.658;2023-09-18T08:40:40;9.95;;;5.15;;
75139;SDS011;63714;55.812;37.658;2023-09-18T08:43:07;11.35;;;6.00;;
75139;SDS011;63714;55.812;37.658;2023-09-18T08:45:38;11.13;;;5.43;;
75139;SDS011;63714;55.812;37.658;2023-09-18T08:48:15;10.27;;;6.35;;
75139;SDS011;63714;55.812;37.658;2023-09-18T08:50:41;17.65;;;10.85;;
75139;SDS011;63714;55.812;37.658;2023-09-18T08:53:07;9.98;;;6.88;;
75139;SDS011;63714;55.812;37.658;2023-09-18T08:55:33;9.27;;;5.50;;
75139;SDS011;63714;55.812;37.658;2023-09-18T08:58:00;10.63;;;5.72;;
75139;SDS011;63714;55.812;37.658;2023-09-18T09:00:26;10.95;;;6.10;;
75139;SDS011;63714;55.812;37.658;2023-09-18T09:02:52;8.65;;;5.60;;
75139;SDS011;63714;55.812;37.658;2023-09-18T09:05:19;11.45;;;6.82;;
75139;SDS011;63714;55.812;37.658;2023-09-18T09:12:51;8.32;;;5.25;;
75139;SDS011;63714;55.812;37.658;2023-09-18T09:15:20;8.88;;;6.10;;
75139;SDS011;63714;55.812;37.658;2023-09-18T09:22:39;9.65;;;5.75;;
75139;SDS011;63714;55.812;37.658;2023-09-18T09:25:27;7.82;;;5.25;;
75139;SDS011;63714;55.812;37.658;2023-09-18T09:27:54;8.05;;;5.63;;
75139;SDS011;63714;55.812;37.658;2023-09-18T09:30:23;10.60;;;5.35;;
75139;SDS011;63714;55.812;37.658;2023-09-18T09:32:51;8.68;;;5.70;;
75139;SDS011;63714;55.812;37.658;2023-09-18T09:38:01;8.90;;;5.53;;
75139;SDS011;63714;55.812;37.658;2023-09-18T09:40:32;10.15;;;5.43;;
75139;SDS011;63714;55.812;37.658;2023-09-18T09:42:57;9.23;;;5.25;;
75139;SDS011;63714;55.812;37.658;2023-09-18T09:45:27;10.27;;;5.68;;
75139;SDS011;63714;55.812;37.658;2023-09-18T09:47:55;7.45;;;4.88;;
75139;SDS011;63714;55.812;37.658;2023-09-18T09:50:21;6.53;;;5.10;;
75139;SDS011;63714;55.812;37.658;2023-09-18T09:52:47;11.07;;;5.93;;
75139;SDS011;63714;55.812;37.658;2023-09-18T09:55:28;10.52;;;5.30;;
75139;SDS011;63714;55.812;37.658;2023-09-18T10:03:17;8.88;;;5.55;;
75139;SDS011;63714;55.812;37.658;2023-09-18T10:05:45;9.00;;;4.80;;
75139;SDS011;63714;55.812;37.658;2023-09-18T10:08:23;9.52;;;5.65;;
75139;SDS011;63714;55.812;37.658;2023-09-18T10:10:52;7.78;;;4.82;;
75139;SDS011;63714;55.812;37.658;2023-09-18T10:13:20;8.63;;;5.13;;
75139;SDS011;63714;55.812;37.658;2023-09-18T10:15:52;8.43;;;5.28;;
75139;SDS011;63714;55.812;37.658;2023-09-18T10:26:22;5.95;;;4.55;;
75139;SDS011;63714;55.812;37.658;2023-09-18T10:28:56;8.05;;;4.60;;
75139;SDS011;63714;55.812;37.658;2023-09-18T10:31:27;9.05;;;5.05;;
75139;SDS011;63714;55.812;37.658;2023-09-18T10:33:53;7.60;;;4.68;;
75139;SDS011;63714;55.812;37.658;2023-09-18T10:36:21;7.65;;;4.75;;
75139;SDS011;63714;55.812;37.658;2023-09-18T10:38:48;7.68;;;4.25;;
75139;SDS011;63714;55.812;37.658;2023-09-18T10:41:17;11.68;;;5.40;;
75139;SDS011;63714;55.812;37.658;2023-09-18T10:43:45;7.97;;;4.43;;
75139;SDS011;63714;55.812;37.658;2023-09-18T10:46:13;6.10;;;4.10;;
75139;SDS011;63714;55.812;37.658;2023-09-18T10:48:42;5.45;;;3.58;;
75139;SDS011;63714;55.812;37.658;2023-09-18T10:51:09;4.95;;;3.22;;
75139;SDS011;63714;55.812;37.658;2023-09-18T10:53:36;6.28;;;3.70;;
75139;SDS011;63714;55.812;37.658;2023-09-18T10:56:02;5.70;;;3.67;;
75139;SDS011;63714;55.812;37.658;2023-09-18T10:58:32;5.53;;;3.83;;
75139;SDS011;63714;55.812;37.658;2023-09-18T11:01:01;5.60;;;3.78;;
75139;SDS011;63714;55.812;37.658;2023-09-18T11:03:29;6.75;;;4.65;;
75139;SDS011;63714;55.812;37.658;2023-09-18T11:06:02;7.20;;;4.50;;
75139;SDS011;63714;55.812;37.658;2023-09-18T11:08:36;8.70;;;4.22;;
75139;SDS011;63714;55.812;37.658;2023-09-18T11:11:11;5.63;;;3.55;;
75139;SDS011;63714;55.812;37.658;2023-09-18T11:13:50;6.45;;;3.85;;
75139;SDS011;63714;55.812;37.658;2023-09-18T11:18:52;7.55;;;4.32;;
75139;SDS011;63714;55.812;37.658;2023-09-18T11:21:27;10.32;;;4.78;;
75139;SDS011;63714;55.812;37.658;2023-09-18T11:29:16;8.90;;;5.47;;
75139;SDS011;63714;55.812;37.658;2023-09-18T11:31:51;9.48;;;4.88;;
75139;SDS011;63714;55.812;37.658;2023-09-18T11:36:56;11.90;;;7.28;;
75139;SDS011;63714;55.812;37.658;2023-09-18T11:39:35;9.10;;;6.45;;
75139;SDS011;63714;55.812;37.658;2023-09-18T11:42:20;11.65;;;6.38;;
75139;SDS011;63714;55.812;37.658;2023-09-18T11:44:51;9.13;;;7.00;;
75139;SDS011;63714;55.812;37.658;2023-09-18T11:47:23;9.43;;;6.82;;
75139;SDS011;63714;55.812;37.658;2023-09-18T11:49:54;9.75;;;6.88;;
75139;SDS011;63714;55.812;37.658;2023-09-18T11:52:22;9.60;;;6.78;;
75139;SDS011;63714;55.812;37.658;2023-09-18T11:54:48;7.72;;;6.20;;
75139;SDS011;63714;55.812;37.658;2023-09-18T11:57:15;8.93;;;6.35;;
75139;SDS011;63714;55.812;37.658;2023-09-18T11:59:41;10.32;;;6.18;;
75139;SDS011;63714;55.812;37.658;2023-09-18T12:02:11;10.30;;;6.72;;
75139;SDS011;63714;55.812;37.658;2023-09-18T12:05:15;11.48;;;6.70;;
75139;SDS011;63714;55.812;37.658;2023-09-18T12:07:42;10.88;;;6.88;;
75139;SDS011;63714;55.812;37.658;2023-09-18T12:10:10;12.50;;;7.25;;
75139;SDS011;63714;55.812;37.658;2023-09-18T12:12:41;9.90;;;6.20;;
75139;SDS011;63714;55.812;37.658;2023-09-18T12:15:08;12.10;;;7.10;;
75139;SDS011;63714;55.812;37.658;2023-09-18T12:17:36;14.93;;;9.75;;
75139;SDS011;63714;55.812;37.658;2023-09-18T12:20:02;12.52;;;6.35;;
75139;SDS011;63714;55.812;37.658;2023-09-18T12:22:29;7.38;;;5.57;;
75139;SDS011;63714;55.812;37.658;2023-09-18T12:25:12;10.18;;;5.60;;
75139;SDS011;63714;55.812;37.658;2023-09-18T12:27:39;7.47;;;5.07;;
75139;SDS011;63714;55.812;37.658;2023-09-18T12:30:07;8.77;;;5.10;;
75139;SDS011;63714;55.812;37.658;2023-09-18T12:32:37;11.98;;;5.50;;
75139;SDS011;63714;55.812;37.658;2023-09-18T12:35:05;9.60;;;5.95;;
75139;SDS011;63714;55.812;37.658;2023-09-18T12:37:33;6.45;;;4.60;;
75139;SDS011;63714;55.812;37.658;2023-09-18T12:39:59;8.38;;;4.60;;
75139;SDS011;63714;55.812;37.658;2023-09-18T12:42:25;5.72;;;3.97;;
75139;SDS011;63714;55.812;37.658;2023-09-18T12:44:51;8.70;;;4.65;;
75139;SDS011;63714;55.812;37.658;2023-09-18T12:47:18;10.07;;;5.13;;
75139;SDS011;63714;55.812;37.658;2023-09-18T12:49:43;9.00;;;5.13;;
75139;SDS011;63714;55.812;37.658;2023-09-18T12:52:09;9.07;;;4.40;;
75139;SDS011;63714;55.812;37.658;2023-09-18T12:54:39;16.70;;;8.57;;
75139;SDS011;63714;55.812;37.658;2023-09-18T12:57:06;9.57;;;5.95;;
75139;SDS011;63714;55.812;37.658;2023-09-18T12:59:33;9.65;;;5.60;;
75139;SDS011;63714;55.812;37.658;2023-09-18T13:02:02;9.77;;;4.90;;
75139;SDS011;63714;55.812;37.658;2023-09-18T13:04:30;17.08;;;5.47;;
75139;SDS011;63714;55.812;37.658;2023-09-18T13:07:11;8.40;;;5.28;;
75139;SDS011;63714;55.812;37.658;2023-09-18T13:09:38;7.70;;;4.50;;
75139;SDS011;63714;55.812;37.658;2023-09-18T13:12:05;7.78;;;5.03;;
75139;SDS011;63714;55.812;37.658;2023-09-18T13:15:23;7.47;;;4.60;;
75139;SDS011;63714;55.812;37.658;2023-09-18T13:17:44;8.75;;;4.72;;
75139;SDS011;63714;55.812;37.658;2023-09-18T13:22:41;9.88;;;5.25;;
75139;SDS011;63714;55.812;37.658;2023-09-18T13:25:08;9.93;;;5.18;;
75139;SDS011;63714;55.812;37.658;2023-09-18T13:27:36;6.82;;;4.93;;
75139;SDS011;63714;55.812;37.658;2023-09-18T13:30:04;10.20;;;5.40;;
75139;SDS011;63714;55.812;37.658;2023-09-18T13:32:35;14.88;;;5.57;;
75139;SDS011;63714;55.812;37.658;2023-09-18T13:35:04;12.40;;;5.05;;
75139;SDS011;63714;55.812;37.658;2023-09-18T13:37:34;7.88;;;4.95;;
75139;SDS011;63714;55.812;37.658;2023-09-18T13:40:00;10.52;;;5.93;;
75139;SDS011;63714;55.812;37.658;2023-09-18T13:42:29;11.20;;;6.03;;
75139;SDS011;63714;55.812;37.658;2023-09-18T13:44:56;16.15;;;6.28;;
75139;SDS011;63714;55.812;37.658;2023-09-18T13:47:22;10.18;;;5.68;;
75139;SDS011;63714;55.812;37.658;2023-09-18T13:49:47;9.27;;;5.07;;
75139;SDS011;63714;55.812;37.658;2023-09-18T13:52:13;14.75;;;6.18;;
75139;SDS011;63714;55.812;37.658;2023-09-18T13:54:39;11.25;;;5.47;;
75139;SDS011;63714;55.812;37.658;2023-09-18T13:57:05;9.20;;;5.45;;
75139;SDS011;63714;55.812;37.658;2023-09-18T13:59:31;9.60;;;5.57;;
75139;SDS011;63714;55.812;37.658;2023-09-18T14:01:57;8.63;;;5.07;;
75139;SDS011;63714;55.812;37.658;2023-09-18T14:04:23;7.97;;;4.88;;
75139;SDS011;63714;55.812;37.658;2023-09-18T14:06:48;10.48;;;4.90;;
75139;SDS011;63714;55.812;37.658;2023-09-18T14:09:14;10.35;;;5.53;;
75139;SDS011;63714;55.812;37.658;2023-09-18T14:11:39;9.73;;;5.63;;
75139;SDS011;63714;55.812;37.658;2023-09-18T14:14:05;16.23;;;7.50;;
75139;SDS011;63714;55.812;37.658;2023-09-18T14:16:30;8.90;;;5.05;;
75139;SDS011;63714;55.812;37.658;2023-09-18T14:18:59;8.82;;;4.85;;
75139;SDS011;63714;55.812;37.658;2023-09-18T14:21:25;12.07;;;5.15;;
75139;SDS011;63714;55.812;37.658;2023-09-18T14:23:54;10.77;;;5.18;;
75139;SDS011;63714;55.812;37.658;2023-09-18T14:26:19;9.77;;;5.15;;
75139;SDS011;63714;55.812;37.658;2023-09-18T14:28:45;11.68;;;5.28;;
75139;SDS011;63714;55.812;37.658;2023-09-18T14:31:11;8.40;;;5.57;;
75139;SDS011;63714;55.812;37.658;2023-09-18T14:33:37;8.88;;;5.75;;
75139;SDS011;63714;55.812;37.658;2023-09-18T14:36:02;11.10;;;5.30;;
75139;SDS011;63714;55.812;37.658;2023-09-18T14:38:29;9.65;;;5.13;;
75139;SDS011;63714;55.812;37.658;2023-09-18T14:40:54;12.88;;;5.25;;
75139;SDS011;63714;55.812;37.658;2023-09-18T14:43:26;9.38;;;5.03;;
75139;SDS011;63714;55.812;37.658;2023-09-18T14:45:52;10.15;;;5.75;;
75139;SDS011;63714;55.812;37.658;2023-09-18T14:48:18;9.57;;;5.50;;
75139;SDS011;63714;55.812;37.658;2023-09-18T14:50:43;9.45;;;4.90;;
75139;SDS011;63714;55.812;37.658;2023-09-18T14:53:09;10.32;;;5.28;;
75139;SDS011;63714;55.812;37.658;2023-09-18T14:55:34;11.70;;;5.65;;
75139;SDS011;63714;55.812;37.658;2023-09-18T14:58:00;10.23;;;5.32;;
75139;SDS011;63714;55.812;37.658;2023-09-18T15:00:26;9.85;;;4.93;;
75139;SDS011;63714;55.812;37.658;2023-09-18T15:02:51;9.65;;;5.85;;
75139;SDS011;63714;55.812;37.658;2023-09-18T15:05:17;9.75;;;6.22;;
75139;SDS011;63714;55.812;37.658;2023-09-18T15:07:43;8.38;;;5.53;;
75139;SDS011;63714;55.812;37.658;2023-09-18T15:10:08;10.07;;;5.47;;
75139;SDS011;63714;55.812;37.658;2023-09-18T15:12:35;13.57;;;5.80;;
75139;SDS011;63714;55.812;37.658;2023-09-18T15:15:01;12.48;;;5.70;;